DONNELLS (DON)

Elevation: 4835' · STANISLAUS R basin · Operator: US Bureau of Reclamation

Provisional data, subject to change.
Query executed Tuesday at 12:00:56   clock

Select a sensor type for a plot of data.
Note: Reservoir Flows are daily averages.

Earlier

Date STORAGE    RES CHG    OUTFLOW   
 AF   AF   CFS  
07/31/2016 52906 -346 351
08/01/2016 52374 -532 446
08/02/2016 51772 -602 451
08/03/2016 51115 -657 435
08/04/2016 50484 -631 426
08/05/2016 49875 -609 410
08/06/2016 49337 -538 373
08/07/2016 48764 -573 397
08/08/2016 48086 -678 446
08/09/2016 47411 -675 441
08/10/2016 42250 -5161 161
08/11/2016 46666 4416 412
08/12/2016 46022 -644 433
08/13/2016 45438 -584 380
08/14/2016 44907 -531 364
08/15/2016 44235 -672 440
08/16/2016 43466 -769 469
08/17/2016 42756 -710 456
08/18/2016 41919 -837 521
08/19/2016 40686 -1233 705
08/20/2016 39386 -1300 728
08/21/2016 38085 -1301 729
08/22/2016 36797 -1288 733
08/23/2016 35807 -990 561
08/24/2016 34808 -999 589
08/25/2016 34397 -411 249
08/26/2016 34242 -155 129
08/27/2016 34190 -52 125
08/28/2016 34121 -69 121
08/29/2016 34035 -86 137
08/30/2016 -- -- --

Later | Latest

Warning! This data is preliminary and subject to revision.

Show DON Map | Plot DON Data | 1 Month DON Data | Real-Time DON Data | DON Info